Anchor Bay, California
Current Conditions -  °F | °C
As of 3:56 PM on Thursday 27 Nov 2014 (Local Time) from KUKI Reporting Station
Clear Clear  
Wind Chill: 63°   Ceiling: Unl
Heat Index: 63°   Visibility: 10mi
Dew Point: 46°   Wind: 3mph
Humidity: 54%   Direction: 280°W
Pressure: 30.04"   Gusts: NA
Location:  38.8361°N, 123.43°W
Report Text: KUKI 272356Z AUTO 28003KT 10SM CLR 17/08 A3004 RMK AO2 SLP170 T01720078 10206 20094 56024
Loading
Personal Weather Stations






























Interactive Weather Map New forecast layout! Learn more

10-Day Weather Forecast

Advertisements
Track Severe Weather on mobile